Time;durP1;ratioP1;P1;durP2;ratioP2;P2;SDS_P1;SDS_P2;PMS_P1;PMS_P2;Temp;Humidity;BMP_temperature;BMP_pressure;BME280_temperature;BME280_humidity;BME280_pressure;Samples;Min_cycle;Max_cycle;Signal;HPM_P1;HPM_P2
2024/01/05 00:02:05;;;;;;;5.77;2.30;;;;;3.20;92905.00;;;;7399958;19;20153;-79
2024/01/05 00:04:41;;;;;;;8.67;1.80;;;;;3.20;92903.00;;;;7399085;19;20604;-79
2024/01/05 00:07:09;;;;;;;12.23;2.10;;;;;3.20;92907.00;;;;7399214;19;20184;-78
2024/01/05 00:09:49;;;;;;;14.27;2.13;;;;;3.20;92905.00;;;;7398277;19;20132;-80
2024/01/05 00:12:18;;;;;;;12.67;2.43;;;;;3.10;92897.00;;;;7400314;19;20216;-80
2024/01/05 00:14:53;;;;;;;12.37;2.20;;;;;3.30;92894.00;;;;7398325;19;20621;-79
2024/01/05 00:17:20;;;;;;;9.83;2.07;;;;;3.20;92895.00;;;;7402312;19;20162;-79
2024/01/05 00:19:54;;;;;;;10.27;2.23;;;;;3.40;92899.00;;;;7398854;19;20140;-79
2024/01/05 00:22:22;;;;;;;7.43;2.20;;;;;3.40;92900.00;;;;7400322;19;20156;-79
2024/01/05 00:24:52;;;;;;;7.93;2.10;;;;;3.50;92901.00;;;;7399996;19;20137;-79
2024/01/05 00:27:26;;;;;;;10.77;2.17;;;;;3.50;92894.00;;;;7400554;19;20151;-81
2024/01/05 00:30:00;;;;;;;6.80;1.70;;;;;3.70;92898.00;;;;7399640;19;20165;-79
2024/01/05 00:32:28;;;;;;;8.50;2.20;;;;;3.70;92894.00;;;;7400282;19;20622;-79
2024/01/05 00:35:02;;;;;;;11.23;1.83;;;;;3.80;92891.00;;;;7400087;19;20163;-79
2024/01/05 00:37:30;;;;;;;7.47;1.63;;;;;3.70;92889.00;;;;7397963;19;20163;-79
2024/01/05 00:40:06;;;;;;;4.67;1.30;;;;;3.90;92888.00;;;;7399695;19;20149;-80
2024/01/05 00:42:40;;;;;;;8.27;1.87;;;;;3.90;92876.00;;;;7399548;19;20193;-80
2024/01/05 00:45:14;;;;;;;8.67;2.70;;;;;4.00;92884.00;;;;7400360;19;20171;-81
2024/01/05 00:47:42;;;;;;;9.50;1.90;;;;;4.00;92876.00;;;;7401141;19;20143;-80
2024/01/05 00:50:09;;;;;;;13.20;1.87;;;;;3.90;92883.00;;;;7398991;19;20145;-80
2024/01/05 00:52:44;;;;;;;8.03;1.80;;;;;3.80;92886.00;;;;7397448;19;20148;-80
2024/01/05 00:55:12;;;;;;;4.07;1.37;;;;;4.00;92880.00;;;;7398594;19;20141;-79
2024/01/05 00:57:53;;;;;;;7.90;1.87;;;;;4.10;92880.00;;;;7398461;19;20160;-80
2024/01/05 01:00:28;;;;;;;8.90;1.60;;;;;4.00;92872.00;;;;7399793;19;20148;-80
2024/01/05 01:03:03;;;;;;;5.70;1.90;;;;;4.10;92869.00;;;;7399082;19;20145;-79
2024/01/05 01:05:37;;;;;;;8.83;2.03;;;;;4.10;92870.00;;;;7400673;19;20612;-79
2024/01/05 01:08:18;;;;;;;3.67;1.53;;;;;4.40;92863.00;;;;7397410;19;20167;-78
2024/01/05 01:10:45;;;;;;;7.40;1.80;;;;;4.50;92859.00;;;;7398498;19;20613;-79
2024/01/05 01:13:19;;;;;;;3.07;1.47;;;;;4.50;92856.00;;;;7399313;19;20137;-80
2024/01/05 01:15:53;;;;;;;11.60;1.60;;;;;4.50;92859.00;;;;7396646;19;20156;-79
2024/01/05 01:18:21;;;;;;;4.80;1.60;;;;;4.50;92863.00;;;;7398305;19;20197;-80
2024/01/05 01:20:55;;;;;;;3.30;1.30;;;;;4.40;92868.00;;;;7394023;19;20136;-81
2024/01/05 01:23:23;;;;;;;8.97;1.77;;;;;4.50;92855.00;;;;7398894;19;20147;-79
2024/01/05 01:25:58;;;;;;;4.73;1.40;;;;;4.50;92853.00;;;;7398310;19;20147;-80
2024/01/05 01:28:26;;;;;;;4.03;1.53;;;;;4.10;92855.00;;;;7396920;19;20512;-80
2024/01/05 01:31:02;;;;;;;7.17;1.67;;;;;3.90;92845.00;;;;7395923;19;20181;-81
2024/01/05 01:33:36;;;;;;;4.80;1.47;;;;;3.90;92842.00;;;;7394694;19;20143;-80
2024/01/05 01:36:04;;;;;;;5.43;1.20;;;;;3.90;92842.00;;;;7396260;19;20144;-79
2024/01/05 01:38:39;;;;;;;7.97;1.77;;;;;3.70;92843.00;;;;7396522;19;20634;-81
2024/01/05 01:41:09;;;;;;;8.40;1.60;;;;;3.70;92830.00;;;;7398247;19;20151;-79
2024/01/05 01:43:50;;;;;;;6.33;1.60;;;;;3.60;92838.00;;;;7394320;19;20153;-78
2024/01/05 01:46:24;;;;;;;5.63;1.73;;;;;3.50;92830.00;;;;7395833;19;20492;-78
2024/01/05 01:48:53;;;;;;;5.70;1.60;;;;;3.50;92830.00;;;;7395839;19;20133;-80
2024/01/05 01:51:31;;;;;;;7.00;1.47;;;;;3.50;92828.00;;;;7393833;19;20131;-77
2024/01/05 01:54:02;;;;;;;6.40;1.97;;;;;3.50;92820.00;;;;7396375;19;20146;-81
2024/01/05 01:56:37;;;;;;;3.57;1.47;;;;;3.30;92819.00;;;;7396178;19;20137;-81
2024/01/05 01:59:06;;;;;;;7.63;1.53;;;;;3.20;92815.00;;;;7396617;19;20141;-79
2024/01/05 02:01:42;;;;;;;4.07;1.50;;;;;3.10;92821.00;;;;7395810;19;20158;-79
2024/01/05 02:04:15;;;;;;;6.40;1.70;;;;;3.20;92838.00;;;;7395965;19;20156;-80
2024/01/05 02:06:49;;;;;;;6.47;1.77;;;;;3.10;92827.00;;;;7395512;19;20236;-82
2024/01/05 02:09:30;;;;;;;3.77;1.77;;;;;3.10;92812.00;;;;7396698;19;20165;-81
2024/01/05 02:12:05;;;;;;;10.50;1.60;;;;;3.20;92810.00;;;;7397596;19;20192;-80
2024/01/05 02:14:32;;;;;;;7.43;1.67;;;;;3.30;92813.00;;;;7401473;19;20153;-80
2024/01/05 02:17:27;;;;;;;7.00;2.07;;;;;3.20;92803.00;;;;7405428;19;20167;-78
2024/01/05 02:19:56;;;;;;;8.23;1.50;;;;;3.20;92806.00;;;;7405486;19;20145;-80
2024/01/05 02:22:34;;;;;;;5.50;1.60;;;;;3.10;92813.00;;;;7403681;19;20279;-80
2024/01/05 02:25:08;;;;;;;4.27;1.57;;;;;2.90;92806.00;;;;7403563;19;20178;-81
2024/01/05 02:27:37;;;;;;;9.17;1.77;;;;;2.90;92801.00;;;;7403141;19;20136;-79
2024/01/05 02:30:20;;;;;;;6.70;1.40;;;;;3.00;92805.00;;;;7403951;19;20220;-80
2024/01/05 02:32:48;;;;;;;5.17;1.33;;;;;2.90;92816.00;;;;7404514;19;20185;-81
2024/01/05 02:35:22;;;;;;;6.67;1.70;;;;;2.80;92807.00;;;;7405869;19;20144;-80
2024/01/05 02:37:50;;;;;;;6.50;1.60;;;;;2.80;92811.00;;;;7404667;19;20143;-80
2024/01/05 02:40:24;;;;;;;4.53;1.37;;;;;2.90;92805.00;;;;7401161;19;20619;-80
2024/01/05 02:42:52;;;;;;;3.00;1.40;;;;;3.00;92783.00;;;;7402325;19;20172;-80
2024/01/05 02:45:26;;;;;;;5.17;1.70;;;;;3.00;92798.00;;;;7406606;19;20584;-81
2024/01/05 02:47:54;;;;;;;6.27;1.63;;;;;3.00;92773.00;;;;7404335;19;20527;-81
2024/01/05 02:50:29;;;;;;;5.03;1.20;;;;;3.20;92771.00;;;;7403360;19;20489;-80
2024/01/05 02:53:03;;;;;;;7.33;1.77;;;;;3.10;92779.00;;;;7405422;19;20136;-80
2024/01/05 02:55:31;;;;;;;4.03;1.63;;;;;3.30;92780.00;;;;7403640;19;20600;-81
2024/01/05 02:58:05;;;;;;;4.03;1.10;;;;;3.50;92773.00;;;;7402922;19;20579;-80
2024/01/05 03:00:39;;;;;;;3.57;1.43;;;;;3.60;92770.00;;;;7402412;19;20236;-80
2024/01/05 03:03:07;;;;;;;5.40;1.27;;;;;3.50;92759.00;;;;7402159;19;20604;-81
2024/01/05 03:05:41;;;;;;;2.23;1.20;;;;;3.60;92761.00;;;;7401984;19;20627;-80
2024/01/05 03:08:15;;;;;;;2.87;1.10;;;;;3.50;92757.00;;;;7396294;19;20165;-80
2024/01/05 03:10:50;;;;;;;4.27;2.10;;;;;3.50;92754.00;;;;7401059;19;20149;-79
2024/01/05 03:13:25;;;;;;;2.10;1.10;;;;;3.50;92754.00;;;;7401379;19;20157;-80
2024/01/05 03:16:00;;;;;;;3.27;1.50;;;;;3.60;92750.00;;;;7402151;19;20147;-82
2024/01/05 03:18:28;;;;;;;2.80;1.00;;;;;3.40;92745.00;;;;7400668;19;20140;-83
2024/01/05 03:21:03;;;;;;;7.70;1.30;;;;;3.20;92749.00;;;;7401614;19;20600;-82
2024/01/05 03:23:31;;;;;;;5.90;1.50;;;;;3.10;92744.00;;;;7403872;19;20133;-81
2024/01/05 03:25:59;;;;;;;2.47;1.27;;;;;3.00;92740.00;;;;7399925;19;20165;-81
2024/01/05 03:28:34;;;;;;;6.77;1.43;;;;;2.90;92736.00;;;;7401558;19;20145;-81
2024/01/05 03:31:01;;;;;;;5.40;1.60;;;;;2.90;92735.00;;;;7400044;19;20137;-81
2024/01/05 03:33:36;;;;;;;2.13;1.23;;;;;2.80;92746.00;;;;7401149;19;20176;-82
2024/01/05 03:36:10;;;;;;;6.77;1.80;;;;;2.80;92749.00;;;;7400902;19;20682;-82
2024/01/05 03:38:45;;;;;;;4.23;1.30;;;;;2.60;92751.00;;;;7401176;19;20132;-82
2024/01/05 03:41:19;;;;;;;5.43;1.60;;;;;2.50;92751.00;;;;7401050;19;20148;-79
2024/01/05 03:43:48;;;;;;;5.07;1.30;;;;;2.50;92743.00;;;;7396695;19;20188;-80
2024/01/05 03:46:22;;;;;;;1.50;1.10;;;;;2.60;92736.00;;;;7402399;19;20132;-81
2024/01/05 03:48:50;;;;;;;6.50;1.53;;;;;2.60;92739.00;;;;7399926;19;20133;-82
2024/01/05 03:51:24;;;;;;;2.57;1.10;;;;;2.40;92731.00;;;;7399499;19;20181;-81
2024/01/05 03:53:52;;;;;;;6.07;1.57;;;;;2.30;92727.00;;;;7401439;19;20121;-80
2024/01/05 03:56:26;;;;;;;5.47;1.40;;;;;2.20;92717.00;;;;7400272;19;20148;-80
2024/01/05 03:58:54;;;;;;;8.10;1.40;;;;;2.20;92719.00;;;;7399708;19;20592;-80
2024/01/05 04:01:28;;;;;;;3.40;1.40;;;;;2.10;92717.00;;;;7399215;19;20140;-80
2024/01/05 04:04:02;;;;;;;11.97;1.67;;;;;2.00;92722.00;;;;7399118;19;20192;-80
2024/01/05 04:06:31;;;;;;;3.37;1.10;;;;;1.90;92726.00;;;;7401214;19;20129;-80
2024/01/05 04:09:11;;;;;;;5.63;1.47;;;;;1.90;92721.00;;;;7396917;19;20170;-80
2024/01/05 04:11:40;;;;;;;7.77;1.40;;;;;2.00;92723.00;;;;7398478;19;20495;-81
2024/01/05 04:14:14;;;;;;;5.63;1.50;;;;;2.00;92717.00;;;;7398293;19;20514;-80
2024/01/05 04:16:49;;;;;;;5.33;1.40;;;;;2.30;92710.00;;;;7399351;19;20174;-80
2024/01/05 04:19:23;;;;;;;10.43;1.90;;;;;2.30;92710.00;;;;7398784;19;20140;-81
2024/01/05 04:21:58;;;;;;;6.27;1.73;;;;;2.40;92708.00;;;;7399061;19;20144;-81
2024/01/05 04:24:25;;;;;;;5.60;2.10;;;;;2.20;92707.00;;;;7399230;19;20133;-80
2024/01/05 04:26:59;;;;;;;3.50;1.33;;;;;2.20;92703.00;;;;7398927;19;20128;-81
2024/01/05 04:29:35;;;;;;;5.43;1.50;;;;;2.10;92694.00;;;;7398578;19;20164;-80
2024/01/05 04:32:03;;;;;;;7.83;1.80;;;;;2.00;92700.00;;;;7397673;19;20141;-78
2024/01/05 04:34:30;;;;;;;7.70;2.10;;;;;2.20;92689.00;;;;7397958;19;20226;-81
2024/01/05 04:37:04;;;;;;;5.70;1.33;;;;;2.00;92692.00;;;;7398312;19;20668;-80
2024/01/05 04:39:32;;;;;;;4.33;1.63;;;;;2.10;92693.00;;;;7398077;19;20155;-79
2024/01/05 04:42:06;;;;;;;9.87;2.37;;;;;2.20;92693.00;;;;7397680;19;20239;-79
2024/01/05 04:44:34;;;;;;;10.70;2.20;;;;;2.10;92682.00;;;;7398266;19;20212;-80
2024/01/05 04:47:02;;;;;;;5.20;1.80;;;;;2.20;92683.00;;;;7396342;19;20145;-79
2024/01/05 04:49:36;;;;;;;5.20;1.50;;;;;2.10;92678.00;;;;7397836;19;20144;-80
2024/01/05 04:52:11;;;;;;;9.57;3.20;;;;;2.20;92689.00;;;;7398906;19;20589;-78
2024/01/05 04:54:45;;;;;;;11.23;1.70;;;;;2.20;92683.00;;;;7397880;19;20653;-80
2024/01/05 04:57:13;;;;;;;7.20;2.23;;;;;2.20;92681.00;;;;7396917;19;20505;-79
2024/01/05 04:59:48;;;;;;;6.90;2.03;;;;;2.10;92685.00;;;;7398436;19;20143;-79
2024/01/05 05:02:23;;;;;;;9.03;1.50;;;;;2.00;92694.00;;;;7398554;19;20210;-79
2024/01/05 05:04:57;;;;;;;4.93;1.70;;;;;2.10;92690.00;;;;7397997;19;20627;-80
2024/01/05 05:07:32;;;;;;;6.13;1.83;;;;;2.10;92691.00;;;;7396963;19;20151;-78
2024/01/05 05:10:14;;;;;;;7.23;1.53;;;;;2.00;92679.00;;;;7396879;19;20144;-79
2024/01/05 05:12:42;;;;;;;4.10;1.80;;;;;2.20;92682.00;;;;7395556;19;20129;-79
2024/01/05 05:15:16;;;;;;;9.97;1.97;;;;;2.10;92677.00;;;;7398434;19;20148;-82
2024/01/05 05:17:45;;;;;;;7.50;1.60;;;;;2.10;92681.00;;;;7398061;19;20147;-79
2024/01/05 05:20:21;;;;;;;6.63;1.60;;;;;2.20;92676.00;;;;7398101;19;20133;-78
2024/01/05 05:22:49;;;;;;;4.43;1.57;;;;;2.10;92683.00;;;;7397223;19;20137;-81
2024/01/05 05:25:24;;;;;;;1.67;1.23;;;;;2.20;92689.00;;;;7397474;19;20149;-79
2024/01/05 05:27:52;;;;;;;4.17;1.40;;;;;2.30;92690.00;;;;7396756;19;20133;-79
2024/01/05 05:30:27;;;;;;;6.00;1.80;;;;;2.20;92683.00;;;;7397353;19;20135;-79
2024/01/05 05:33:01;;;;;;;4.87;1.50;;;;;2.20;92679.00;;;;7394692;19;20165;-80
2024/01/05 05:35:35;;;;;;;4.67;1.80;;;;;2.00;92681.00;;;;7397000;19;20612;-78
2024/01/05 05:38:09;;;;;;;5.10;1.67;;;;;2.00;92675.00;;;;7396820;19;20157;-80
2024/01/05 05:40:44;;;;;;;3.77;1.60;;;;;2.10;92679.00;;;;7397073;19;20612;-80
2024/01/05 05:43:18;;;;;;;8.27;1.70;;;;;2.20;92675.00;;;;7395204;19;20210;-82
2024/01/05 05:45:46;;;;;;;6.87;1.83;;;;;2.40;92676.00;;;;7398360;19;20140;-80
2024/01/05 05:48:20;;;;;;;4.23;1.50;;;;;2.50;92667.00;;;;7396434;19;20153;-80
2024/01/05 05:50:48;;;;;;;5.43;1.97;;;;;2.50;92684.00;;;;7405231;19;20600;-81
2024/01/05 05:53:22;;;;;;;6.33;2.03;;;;;2.70;92684.00;;;;7404663;19;20148;-80
2024/01/05 05:55:50;;;;;;;4.00;1.30;;;;;2.70;92684.00;;;;7403411;19;20481;-82
2024/01/05 05:58:17;;;;;;;8.63;1.70;;;;;2.70;92679.00;;;;7403887;19;20136;-81
2024/01/05 06:00:51;;;;;;;5.17;1.33;;;;;2.90;92674.00;;;;7403450;19;20141;-81
2024/01/05 06:03:19;;;;;;;4.20;1.50;;;;;2.90;92674.00;;;;7403735;19;20976;-81
2024/01/05 06:05:47;;;;;;;4.70;1.50;;;;;2.90;92686.00;;;;7403838;19;20125;-81
2024/01/05 06:08:21;;;;;;;2.87;1.60;;;;;2.90;92673.00;;;;7402117;19;20180;-81
2024/01/05 06:11:02;;;;;;;3.47;1.47;;;;;3.10;92674.00;;;;7403113;19;20139;-81
2024/01/05 06:13:30;;;;;;;7.67;3.00;;;;;3.00;92676.00;;;;7404770;19;20596;-79
2024/01/05 06:16:04;;;;;;;4.07;1.43;;;;;3.00;92664.00;;;;7402985;19;20492;-80
2024/01/05 06:18:40;;;;;;;3.10;1.53;;;;;3.00;92675.00;;;;7404754;19;20144;-80
2024/01/05 06:21:07;;;;;;;5.87;1.67;;;;;3.00;92679.00;;;;7403746;19;20640;-80
2024/01/05 06:23:41;;;;;;;4.60;1.73;;;;;2.70;92673.00;;;;7403549;19;20141;-82
2024/01/05 06:26:09;;;;;;;4.17;1.43;;;;;2.60;92669.00;;;;7404247;19;20133;-82
2024/01/05 06:28:43;;;;;;;4.13;1.30;;;;;2.70;92672.00;;;;7402779;19;20490;-80
2024/01/05 06:31:17;;;;;;;7.50;1.47;;;;;2.90;92681.00;;;;7402780;19;20616;-83
2024/01/05 06:33:45;;;;;;;6.23;1.40;;;;;3.10;92683.00;;;;7402393;19;20639;-81
2024/01/05 06:36:19;;;;;;;3.67;1.23;;;;;3.10;92674.00;;;;7404746;19;20125;-81
2024/01/05 06:38:47;;;;;;;5.83;1.33;;;;;3.20;92667.00;;;;7404235;19;20603;-80
2024/01/05 06:41:21;;;;;;;3.17;1.37;;;;;3.00;92674.00;;;;7403369;19;20156;-80
2024/01/05 06:43:49;;;;;;;3.80;1.37;;;;;2.50;92674.00;;;;7402131;19;20144;-81
2024/01/05 06:46:23;;;;;;;2.87;1.30;;;;;2.30;92686.00;;;;7402362;19;20625;-80
2024/01/05 06:48:51;;;;;;;5.13;1.27;;;;;2.20;92692.00;;;;7399356;19;20893;-82
2024/01/05 06:51:29;;;;;;;10.97;2.23;;;;;2.00;92703.00;;;;7402322;19;20473;-80
2024/01/05 06:53:58;;;;;;;104.87;7.07;;;;;1.90;92704.00;;;;7401062;19;20742;-80
2024/01/05 06:56:33;;;;;;;4.37;1.70;;;;;2.00;92692.00;;;;7401222;19;20225;-81
2024/01/05 06:59:02;;;;;;;4.97;1.50;;;;;1.90;92692.00;;;;7401182;19;20250;-80
2024/01/05 07:01:36;;;;;;;5.80;1.60;;;;;1.90;92694.00;;;;7401856;19;20140;-80
2024/01/05 07:04:07;;;;;;;6.27;1.73;;;;;1.90;92695.00;;;;7403853;19;20149;-80
2024/01/05 07:06:41;;;;;;;3.23;1.30;;;;;1.60;92697.00;;;;7402472;19;20489;-82
2024/01/05 07:09:22;;;;;;;3.17;1.20;;;;;1.40;92690.00;;;;7401364;19;20143;-80
2024/01/05 07:11:56;;;;;;;3.43;1.10;;;;;1.20;92689.00;;;;7401359;19;20145;-81
2024/01/05 07:14:31;;;;;;;5.23;1.67;;;;;1.30;92688.00;;;;7401478;19;20243;-81
2024/01/05 07:16:59;;;;;;;2.80;1.23;;;;;1.30;92689.00;;;;7401344;19;20136;-81
2024/01/05 07:19:26;;;;;;;2.73;1.10;;;;;1.20;92689.00;;;;7400666;19;20148;-81
2024/01/05 07:22:00;;;;;;;4.20;1.63;;;;;1.20;92696.00;;;;7400855;19;20631;-80
2024/01/05 07:24:37;;;;;;;1.73;1.03;;;;;1.20;92697.00;;;;7401518;19;20548;-80
2024/01/05 07:27:05;;;;;;;8.47;2.07;;;;;1.20;92693.00;;;;7401820;19;20133;-80
2024/01/05 07:29:40;;;;;;;2.67;1.30;;;;;1.20;92699.00;;;;7398378;19;20149;-78
2024/01/05 07:32:14;;;;;;;3.40;1.47;;;;;1.40;92707.00;;;;7391626;19;20167;-79
2024/01/05 07:34:42;;;;;;;2.13;1.13;;;;;1.40;92705.00;;;;7392192;19;20623;-78
2024/01/05 07:37:17;;;;;;;5.10;1.40;;;;;1.50;92703.00;;;;7391871;19;20148;-77
2024/01/05 07:39:45;;;;;;;3.50;1.50;;;;;1.70;92712.00;;;;7397057;19;20152;-79
2024/01/05 07:42:19;;;;;;;7.07;1.50;;;;;1.80;92706.00;;;;7398532;19;20167;-79
2024/01/05 07:44:47;;;;;;;3.43;1.40;;;;;1.90;92709.00;;;;7401390;19;20132;-79
2024/01/05 07:47:21;;;;;;;3.43;1.73;;;;;2.10;92703.00;;;;7399966;19;20136;-80
2024/01/05 07:49:49;;;;;;;6.83;1.80;;;;;2.20;92703.00;;;;7401476;19;20138;-80
2024/01/05 07:52:23;;;;;;;8.53;1.80;;;;;2.20;92707.00;;;;7399102;19;20144;-81
2024/01/05 07:54:51;;;;;;;2.63;1.43;;;;;2.30;92707.00;;;;7399102;19;20140;-80
2024/01/05 07:57:25;;;;;;;3.30;1.20;;;;;2.30;92695.00;;;;7400013;19;20140;-82
2024/01/05 07:59:53;;;;;;;6.53;2.47;;;;;2.50;92689.00;;;;7400008;19;20141;-80
2024/01/05 08:02:28;;;;;;;6.20;1.90;;;;;2.50;92671.00;;;;7398525;19;20203;-81
2024/01/05 08:05:03;;;;;;;7.67;2.00;;;;;2.60;92679.00;;;;7399930;19;20144;-79
2024/01/05 08:07:52;;;;;;;2.57;1.77;;;;;2.60;92679.00;;;;7399085;19;20494;-82
2024/01/05 08:10:26;;;;;;;5.70;1.47;;;;;2.70;92683.00;;;;7399632;19;20604;-81
2024/01/05 08:13:01;;;;;;;4.40;1.70;;;;;2.80;92686.00;;;;7397635;19;20137;-82
2024/01/05 08:15:29;;;;;;;5.97;1.90;;;;;3.00;92687.00;;;;7399526;19;20149;-79
2024/01/05 08:18:04;;;;;;;7.93;1.93;;;;;3.00;92685.00;;;;7397937;19;20136;-80
2024/01/05 08:20:38;;;;;;;4.23;1.93;;;;;3.10;92690.00;;;;7400965;19;20124;-80
2024/01/05 08:23:12;;;;;;;4.63;1.60;;;;;3.30;92684.00;;;;7397963;19;20608;-80
2024/01/05 08:25:40;;;;;;;5.80;1.67;;;;;3.30;92692.00;;;;7397964;19;20141;-81
2024/01/05 08:28:15;;;;;;;3.37;1.80;;;;;3.80;92688.00;;;;7397442;19;20470;-80
2024/01/05 08:30:50;;;;;;;8.13;2.30;;;;;4.20;92689.00;;;;7398145;19;20324;-81
2024/01/05 08:33:25;;;;;;;7.40;2.30;;;;;4.60;92689.00;;;;7394002;19;20152;-81
2024/01/05 08:36:00;;;;;;;7.93;2.30;;;;;5.00;92688.00;;;;7397153;19;20144;-79
2024/01/05 08:38:34;;;;;;;5.83;2.40;;;;;5.50;92686.00;;;;7400076;19;20309;-80
2024/01/05 08:41:02;;;;;;;6.10;2.00;;;;;6.10;92664.00;;;;7396004;19;20168;-80
2024/01/05 08:43:36;;;;;;;7.93;1.80;;;;;8.30;92647.00;;;;7395345;19;20188;-80
2024/01/05 08:46:11;;;;;;;6.30;1.90;;;;;9.70;92655.00;;;;7398011;19;20159;-79
2024/01/05 08:48:39;;;;;;;2.53;1.90;;;;;9.60;92661.00;;;;7397903;19;20145;-79
2024/01/05 08:51:14;;;;;;;4.37;1.60;;;;;10.10;92664.00;;;;7396737;19;20584;-80
2024/01/05 08:53:42;;;;;;;5.00;1.70;;;;;9.30;92661.00;;;;7394241;19;20200;-79
2024/01/05 08:56:17;;;;;;;2.37;1.20;;;;;9.50;92670.00;;;;7376720;19;20163;-79
2024/01/05 08:58:44;;;;;;;3.83;1.50;;;;;9.40;92663.00;;;;7383507;19;20526;-79
2024/01/05 09:01:18;;;;;;;5.25;1.38;;;;;8.50;92667.00;;;;7379607;19;20431;-79
2024/01/05 09:03:46;;;;;;;3.07;1.20;;;;;7.90;92678.00;;;;7379534;19;20532;-80
2024/01/05 09:06:27;;;;;;;4.30;1.80;;;;;7.40;92674.00;;;;7379186;19;20152;-81
2024/01/05 09:09:11;;;;;;;4.00;1.40;;;;;7.30;92678.00;;;;7377381;19;20596;-84
2024/01/05 09:11:41;;;;;;;5.03;1.87;;;;;7.40;92680.00;;;;7380911;19;20133;-80
2024/01/05 09:14:15;;;;;;;7.80;1.70;;;;;7.10;92683.00;;;;7374572;19;20600;-80
2024/01/05 09:16:49;;;;;;;3.77;1.33;;;;;6.80;92684.00;;;;7378231;19;20143;-81
2024/01/05 09:19:17;;;;;;;4.53;1.50;;;;;6.80;92689.00;;;;7376742;19;20141;-79
2024/01/05 09:21:52;;;;;;;3.63;1.77;;;;;7.10;92691.00;;;;7373826;19;20136;-82
2024/01/05 09:24:20;;;;;;;3.57;1.40;;;;;7.20;92681.00;;;;7382710;19;20216;-78
2024/01/05 09:26:54;;;;;;;2.33;1.40;;;;;7.10;92692.00;;;;7384052;19;20124;-80
2024/01/05 09:29:22;;;;;;;5.83;1.50;;;;;7.20;92696.00;;;;7384241;19;20173;-81
2024/01/05 09:31:57;;;;;;;4.20;1.60;;;;;7.50;92695.00;;;;7384689;19;20155;-79
2024/01/05 09:34:25;;;;;;;6.77;1.53;;;;;7.40;92704.00;;;;7380936;19;20512;-79
2024/01/05 09:36:59;;;;;;;4.13;1.10;;;;;7.90;92700.00;;;;7384109;19;20155;-79
2024/01/05 09:39:28;;;;;;;3.03;1.57;;;;;8.20;92702.00;;;;7384662;19;20147;-80
2024/01/05 09:42:03;;;;;;;3.43;1.30;;;;;8.10;92709.00;;;;7383442;19;20212;-79
2024/01/05 09:44:38;;;;;;;3.03;1.43;;;;;8.10;92698.00;;;;7383774;19;20141;-82
2024/01/05 09:47:15;;;;;;;7.67;1.80;;;;;7.80;92711.00;;;;7385110;19;20144;-81
2024/01/05 09:49:44;;;;;;;5.53;1.57;;;;;7.60;92716.00;;;;7385734;19;20169;-82
2024/01/05 09:52:21;;;;;;;7.47;1.57;;;;;7.40;92723.00;;;;7387104;19;20716;-78
2024/01/05 09:54:51;;;;;;;3.97;1.30;;;;;7.30;92721.00;;;;7386513;19;20145;-79
2024/01/05 09:57:27;;;;;;;5.37;1.30;;;;;7.20;92726.00;;;;7404265;19;20547;-80
2024/01/05 09:59:58;;;;;;;4.00;1.17;;;;;7.10;92727.00;;;;7404731;19;20133;-81
2024/01/05 10:02:43;;;;;;;5.90;1.23;;;;;7.00;92731.00;;;;7403524;19;20293;-79
2024/01/05 10:05:17;;;;;;;1.63;1.20;;;;;7.10;92735.00;;;;7403675;19;20155;-80
2024/01/05 10:07:58;;;;;;;2.73;1.20;;;;;7.00;92729.00;;;;7405979;19;20137;-80
2024/01/05 10:10:55;;;;;;;4.03;1.17;;;;;7.00;92740.00;;;;7404218;19;20216;-80
2024/01/05 10:13:29;;;;;;;4.23;1.20;;;;;7.00;92734.00;;;;7402538;19;20136;-81
2024/01/05 10:16:04;;;;;;;1.70;1.00;;;;;7.00;92729.00;;;;7403188;19;20141;-79
2024/01/05 10:18:33;;;;;;;2.63;1.30;;;;;7.00;92731.00;;;;7403240;19;20212;-81
2024/01/05 10:21:11;;;;;;;3.47;1.30;;;;;7.10;92730.00;;;;7403476;19;20532;-82
2024/01/05 10:23:45;;;;;;;2.80;1.10;;;;;7.10;92732.00;;;;7402298;19;20607;-80
2024/01/05 10:26:18;;;;;;;3.83;1.60;;;;;6.90;92728.00;;;;7402570;19;20620;-81
2024/01/05 10:28:52;;;;;;;2.57;1.30;;;;;6.80;92727.00;;;;7403494;19;20612;-81
2024/01/05 10:31:20;;;;;;;3.00;1.03;;;;;6.90;92717.00;;;;7402002;19;20161;-81
2024/01/05 10:33:55;;;;;;;3.07;1.30;;;;;6.90;92717.00;;;;7399838;19;20136;-82
2024/01/05 10:36:30;;;;;;;3.17;1.17;;;;;6.80;92711.00;;;;7403480;19;20463;-82
2024/01/05 10:39:08;;;;;;;4.77;1.40;;;;;7.20;92709.00;;;;7401351;19;20616;-83
2024/01/05 10:41:37;;;;;;;3.60;1.27;;;;;7.20;92720.00;;;;7400925;19;20133;-82
2024/01/05 10:44:16;;;;;;;2.17;1.20;;;;;7.00;92723.00;;;;7401873;19;20132;-81
2024/01/05 10:46:46;;;;;;;3.80;1.50;;;;;7.20;92718.00;;;;7403172;19;20212;-82
2024/01/05 10:49:20;;;;;;;2.70;0.90;;;;;7.00;92718.00;;;;7401456;19;20148;-81
2024/01/05 10:51:54;;;;;;;1.50;1.00;;;;;6.90;92723.00;;;;7401622;19;20144;-81
2024/01/05 10:54:30;;;;;;;2.63;1.20;;;;;7.00;92721.00;;;;7399375;19;20145;-80
2024/01/05 10:56:59;;;;;;;3.80;1.30;;;;;7.00;92714.00;;;;7401042;19;20155;-81
2024/01/05 10:59:34;;;;;;;4.93;1.10;;;;;7.00;92704.00;;;;7401277;19;20148;-81
2024/01/05 11:02:20;;;;;;;5.87;1.50;;;;;7.10;92704.00;;;;7400535;19;20137;-80
2024/01/05 11:05:20;;;;;;;6.23;1.60;;;;;6.90;92689.00;;;;7399621;19;20495;-81
2024/01/05 11:08:03;;;;;;;4.50;1.43;;;;;6.70;92694.00;;;;7400495;19;20617;-80
2024/01/05 11:10:59;;;;;;;3.53;1.20;;;;;6.90;92699.00;;;;7399657;19;20193;-82
2024/01/05 11:13:56;;;;;;;5.57;2.00;;;;;7.00;92701.00;;;;7398617;19;20151;-82
2024/01/05 11:17:06;;;;;;;5.23;1.50;;;;;7.20;92699.00;;;;7399923;19;20528;-79
2024/01/05 11:19:55;;;;;;;4.37;1.60;;;;;7.30;92699.00;;;;7400855;19;20374;-80
2024/01/05 11:22:35;;;;;;;2.93;1.23;;;;;7.30;92703.00;;;;7400984;19;20584;-81
2024/01/05 11:25:09;;;;;;;1.70;1.03;;;;;7.30;92701.00;;;;7400081;19;20153;-81
2024/01/05 11:27:38;;;;;;;4.70;1.50;;;;;7.50;92695.00;;;;7400981;19;20545;-80
2024/01/05 11:30:13;;;;;;;3.53;1.40;;;;;7.40;92688.00;;;;7400155;19;20148;-82
2024/01/05 11:32:53;;;;;;;5.67;1.33;;;;;7.60;92689.00;;;;7400254;19;20151;-82
2024/01/05 11:35:41;;;;;;;5.17;1.57;;;;;7.50;92686.00;;;;7401411;19;20137;-80
2024/01/05 11:38:25;;;;;;;4.10;1.43;;;;;7.50;92688.00;;;;7400042;19;20137;-82
2024/01/05 11:41:14;;;;;;;2.10;1.30;;;;;7.20;92689.00;;;;7398701;19;20155;-81
2024/01/05 11:43:42;;;;;;;1.97;1.40;;;;;7.10;92690.00;;;;7397542;19;20532;-79
2024/01/05 11:46:17;;;;;;;2.20;1.33;;;;;7.10;92688.00;;;;7397996;19;20471;-81
2024/01/05 11:48:52;;;;;;;5.27;1.80;;;;;7.10;92685.00;;;;7400244;19;20486;-82
2024/01/05 11:51:26;;;;;;;5.13;1.43;;;;;7.10;92689.00;;;;7399779;19;20136;-81
2024/01/05 11:53:54;;;;;;;3.40;1.60;;;;;7.00;92688.00;;;;7398476;19;20141;-82
2024/01/05 11:56:32;;;;;;;6.13;1.80;;;;;6.80;92684.00;;;;7398079;19;20613;-82
2024/01/05 11:59:06;;;;;;;2.67;1.37;;;;;6.90;92683.00;;;;7399015;19;20140;-82
2024/01/05 12:01:41;;;;;;;4.00;1.50;;;;;7.00;92693.00;;;;7398619;19;20144;-83
2024/01/05 12:04:09;;;;;;;2.80;1.37;;;;;7.00;92691.00;;;;7399207;19;20224;-81
2024/01/05 12:06:37;;;;;;;4.63;1.40;;;;;6.90;92688.00;;;;7397621;19;20481;-82
2024/01/05 12:09:18;;;;;;;3.10;1.60;;;;;7.00;92685.00;;;;7399925;19;20144;-81
2024/01/05 12:11:46;;;;;;;3.33;1.80;;;;;7.00;92686.00;;;;7397866;19;20211;-80
2024/01/05 12:14:26;;;;;;;5.10;1.63;;;;;6.90;92679.00;;;;7397474;19;20144;-79
2024/01/05 12:17:14;;;;;;;7.60;1.70;;;;;6.90;92682.00;;;;7399120;19;20227;-81
2024/01/05 12:19:48;;;;;;;5.43;2.00;;;;;7.10;92689.00;;;;7398496;19;20489;-83
2024/01/05 12:22:16;;;;;;;4.53;1.60;;;;;7.10;92687.00;;;;7397831;19;20137;-79
2024/01/05 12:24:51;;;;;;;7.93;1.50;;;;;7.20;92676.00;;;;7397298;19;20212;-79
2024/01/05 12:27:34;;;;;;;4.20;1.80;;;;;7.20;92669.00;;;;7398111;19;20136;-79
2024/01/05 12:30:02;;;;;;;3.30;1.47;;;;;7.20;92661.00;;;;7390590;19;20148;-80
2024/01/05 12:32:37;;;;;;;2.43;1.23;;;;;6.90;92658.00;;;;7382495;19;20667;-82
2024/01/05 12:35:12;;;;;;;6.17;1.43;;;;;7.40;92656.00;;;;7382755;19;20595;-81
2024/01/05 12:37:53;;;;;;;7.00;1.60;;;;;7.50;92651.00;;;;7386773;19;20211;-82
2024/01/05 12:40:26;;;;;;;6.50;1.47;;;;;7.50;92639.00;;;;7387987;19;20151;-82
2024/01/05 12:43:00;;;;;;;3.67;1.60;;;;;7.60;92626.00;;;;7388822;19;20620;-84
2024/01/05 12:45:34;;;;;;;3.97;1.57;;;;;7.80;92625.00;;;;7388193;19;20515;-84
2024/01/05 12:48:12;;;;;;;5.80;1.70;;;;;7.90;92622.00;;;;7378979;19;20171;-83
2024/01/05 12:50:47;;;;;;;2.47;1.13;;;;;7.80;92627.00;;;;7369518;19;20276;-84
2024/01/05 12:53:23;;;;;;;2.90;1.17;;;;;7.90;92615.00;;;;7370223;19;20507;-82
2024/01/05 12:55:51;;;;;;;3.27;1.23;;;;;7.50;92622.00;;;;7371898;19;20423;-83
2024/01/05 12:58:36;;;;;;;4.20;1.13;;;;;7.40;92630.00;;;;7378195;19;20185;-82